createdAt,value
2022-08-09T00:00:11.979Z,13.68
2022-08-09T00:02:42.837Z,13.66
2022-08-09T00:06:17.817Z,13.60
2022-08-09T00:08:04.650Z,13.57
2022-08-09T00:10:40.400Z,13.52
2022-08-09T00:13:16.802Z,13.49
2022-08-09T00:15:59.468Z,13.46
2022-08-09T00:18:31.481Z,13.40
2022-08-09T00:21:07.711Z,13.35
2022-08-09T00:23:57.792Z,13.30
2022-08-09T00:26:30.083Z,13.21
2022-08-09T00:29:03.453Z,13.13
2022-08-09T00:31:59.893Z,13.07
2022-08-09T00:34:26.182Z,13.02
2022-08-09T00:36:53.029Z,12.98
2022-08-09T00:40:08.965Z,12.94
2022-08-09T00:44:19.391Z,12.88
2022-08-09T00:44:53.890Z,12.82
2022-08-09T00:47:21.152Z,12.76
2022-08-09T00:49:54.546Z,12.73
2022-08-09T00:52:30.402Z,12.71
2022-08-09T00:55:01.662Z,12.66
2022-08-09T00:57:34.958Z,12.60
2022-08-09T01:00:21.363Z,12.55
2022-08-09T01:02:54.965Z,12.51
2022-08-09T01:05:51.049Z,12.49
2022-08-09T01:08:28.613Z,12.45
2022-08-09T01:11:14.997Z,12.41
2022-08-09T01:14:01.793Z,12.36
2022-08-09T01:16:40.705Z,12.33
2022-08-09T01:19:43.065Z,12.28
2022-08-09T01:22:27.542Z,12.20
2022-08-09T01:25:19.015Z,12.17
2022-08-09T01:27:52.253Z,12.14
2022-08-09T01:30:35.390Z,12.13
2022-08-09T01:33:10.202Z,12.11
2022-08-09T01:35:46.976Z,12.12
2022-08-09T01:38:23.406Z,12.10
2022-08-09T01:41:05.088Z,12.09
2022-08-09T01:43:41.842Z,12.06
2022-08-09T01:46:24.891Z,12.03
2022-08-09T01:48:56.438Z,11.99
2022-08-09T01:51:26.167Z,11.97
2022-08-09T01:53:57.866Z,11.95
2022-08-09T01:56:27.354Z,11.92
2022-08-09T01:58:56.445Z,11.91
2022-08-09T02:01:57.570Z,11.91
2022-08-09T02:04:13.900Z,11.91
2022-08-09T02:07:02.888Z,11.88
2022-08-09T02:09:42.296Z,11.83
2022-08-09T02:12:17.992Z,11.79
2022-08-09T02:14:51.837Z,11.77
2022-08-09T02:17:59.285Z,11.75
2022-08-09T02:20:11.052Z,11.71
2022-08-09T02:22:51.509Z,11.68
2022-08-09T02:25:25.733Z,11.64
2022-08-09T02:28:09.696Z,11.61
2022-08-09T02:30:43.290Z,11.56
2022-08-09T02:33:18.667Z,11.53
2022-08-09T02:36:02.650Z,11.51
2022-08-09T02:38:35.620Z,11.46
2022-08-09T02:41:08.742Z,11.43
2022-08-09T02:43:42.480Z,11.38
2022-08-09T02:46:27.357Z,11.35
2022-08-09T02:48:56.821Z,11.32
2022-08-09T02:51:26.681Z,11.26
2022-08-09T02:54:01.347Z,11.20
2022-08-09T02:56:30.082Z,11.15
2022-08-09T02:58:57.998Z,11.10
2022-08-09T03:01:29.576Z,11.02
2022-08-09T03:04:19.177Z,10.96
2022-08-09T03:06:48.987Z,10.92
2022-08-09T03:09:17.243Z,10.89
2022-08-09T03:12:09.896Z,10.87
2022-08-09T03:14:32.174Z,10.82
2022-08-09T03:17:02.879Z,10.78
2022-08-09T03:19:59.034Z,10.73
2022-08-09T03:22:25.699Z,10.68
2022-08-09T03:25:05.819Z,10.64
2022-08-09T03:27:50.715Z,10.62
2022-08-09T03:30:29.522Z,10.59
2022-08-09T03:33:17.224Z,10.57
2022-08-09T03:36:13.758Z,10.53
2022-08-09T03:38:42.092Z,10.48
2022-08-09T03:41:15.227Z,10.44
2022-08-09T03:44:02.861Z,10.42
2022-08-09T03:46:34.460Z,10.41
2022-08-09T03:49:04.144Z,10.39
2022-08-09T03:51:54.125Z,10.37
2022-08-09T03:54:32.139Z,10.35
2022-08-09T03:57:12.441Z,10.34
2022-08-09T03:59:54.893Z,10.31
2022-08-09T04:02:27.193Z,10.28
2022-08-09T04:04:59.203Z,10.27
2022-08-09T04:07:33.871Z,10.24
2022-08-09T04:10:20.377Z,10.21
2022-08-09T04:12:51.110Z,10.19
2022-08-09T04:15:38.768Z,10.17
2022-08-09T04:18:07.283Z,10.14
2022-08-09T04:20:34.114Z,10.11
2022-08-09T04:23:00.749Z,10.10
2022-08-09T04:25:29.490Z,10.10
2022-08-09T04:28:02.483Z,10.10
2022-08-09T04:30:30.390Z,10.12
2022-08-09T04:32:57.153Z,10.15
2022-08-09T04:35:23.774Z,10.18
2022-08-09T04:37:50.507Z,10.19
2022-08-09T04:40:19.016Z,10.20
2022-08-09T04:42:55.700Z,10.21
2022-08-09T04:45:23.821Z,10.24
2022-08-09T04:48:00.866Z,10.25
2022-08-09T04:50:31.711Z,10.29
2022-08-09T04:53:00.715Z,10.33
2022-08-09T04:55:27.341Z,10.36
2022-08-09T04:58:09.466Z,10.38
2022-08-09T05:00:36.747Z,10.40
2022-08-09T05:03:30.124Z,10.43
2022-08-09T05:06:06.519Z,10.45
2022-08-09T05:08:35.356Z,10.48
2022-08-09T05:11:06.868Z,10.51
2022-08-09T05:13:38.901Z,10.55
2022-08-09T05:16:07.913Z,10.61
2022-08-09T05:18:50.948Z,10.65
2022-08-09T05:21:24.729Z,10.70
2022-08-09T05:24:01.600Z,10.74
2022-08-09T05:26:45.375Z,10.77
2022-08-09T05:29:22.233Z,10.80
2022-08-09T05:31:57.065Z,10.83
2022-08-09T05:34:30.578Z,10.85
2022-08-09T05:37:05.970Z,10.88
2022-08-09T05:39:36.190Z,10.92
2022-08-09T05:42:17.707Z,10.96
2022-08-09T05:44:50.741Z,11.02
2022-08-09T05:47:22.588Z,11.07
2022-08-09T05:50:32.008Z,11.15
2022-08-09T05:52:42.041Z,11.22
2022-08-09T05:55:18.235Z,11.29
2022-08-09T05:57:51.046Z,11.36
2022-08-09T06:00:25.987Z,11.43
2022-08-09T06:02:54.156Z,11.49
2022-08-09T06:05:30.452Z,11.55
2022-08-09T06:10:02.651Z,11.65
2022-08-09T06:13:12.080Z,12.01
2022-08-09T06:16:20.673Z,12.37
2022-08-09T06:19:23.894Z,12.60
2022-08-09T06:22:29.324Z,12.79
2022-08-09T06:25:31.527Z,12.92
2022-08-09T06:28:36.200Z,13.07
2022-08-09T06:31:40.390Z,13.20
2022-08-09T06:35:00.589Z,13.32
2022-08-09T06:38:06.022Z,13.43
2022-08-09T06:41:18.168Z,13.57
2022-08-09T06:44:21.255Z,13.68
2022-08-09T06:47:23.773Z,13.77
2022-08-09T06:50:25.754Z,13.83
2022-08-09T06:53:33.198Z,13.90
2022-08-09T06:56:40.240Z,13.98
2022-08-09T07:00:52.112Z,14.07
2022-08-09T07:03:09.010Z,14.16
2022-08-09T07:06:12.802Z,14.22
2022-08-09T07:09:55.690Z,14.30
2022-08-09T07:12:41.114Z,14.37
2022-08-09T07:15:53.944Z,14.42
2022-08-09T07:19:06.076Z,14.47
2022-08-09T07:22:10.745Z,14.55
2022-08-09T07:25:13.302Z,14.66
2022-08-09T07:28:19.238Z,14.75
2022-08-09T07:31:27.957Z,14.83
2022-08-09T07:34:31.140Z,14.92
2022-08-09T07:37:43.488Z,15.02
2022-08-09T07:41:08.162Z,15.13
2022-08-09T07:44:07.919Z,15.25
2022-08-09T07:47:13.395Z,15.34
2022-08-09T07:50:18.847Z,15.47
2022-08-09T07:53:36.467Z,15.57
2022-08-09T07:56:58.654Z,15.63
2022-08-09T08:00:02.854Z,15.73
2022-08-09T08:03:08.344Z,15.87
2022-08-09T08:06:10.262Z,16.04
2022-08-09T08:09:35.231Z,16.26
2022-08-09T08:12:43.397Z,16.50
2022-08-09T08:15:46.085Z,16.73
2022-08-09T08:18:51.430Z,16.94
2022-08-09T08:21:53.182Z,17.13
2022-08-09T08:24:57.684Z,17.30
2022-08-09T08:27:59.370Z,17.43
2022-08-09T08:31:08.846Z,17.54
2022-08-09T08:34:16.217Z,17.58
2022-08-09T08:37:22.481Z,17.63
2022-08-09T08:40:27.043Z,17.67
2022-08-09T08:43:32.306Z,17.73
2022-08-09T08:47:02.730Z,17.80
2022-08-09T08:50:04.435Z,17.86
2022-08-09T08:53:11.878Z,17.90
2022-08-09T08:56:25.224Z,17.88
2022-08-09T08:59:44.619Z,17.85
2022-08-09T09:02:53.580Z,17.80
2022-08-09T09:05:58.380Z,17.73
2022-08-09T09:09:06.896Z,17.70
2022-08-09T09:12:29.195Z,17.70
2022-08-09T09:15:30.885Z,17.69
2022-08-09T09:18:32.657Z,17.71
2022-08-09T09:21:43.146Z,17.73
2022-08-09T09:25:39.271Z,17.77
2022-08-09T09:28:39.098Z,17.78
2022-08-09T09:32:03.897Z,17.81
2022-08-09T09:35:16.009Z,17.85
2022-08-09T09:38:36.317Z,17.92
2022-08-09T09:41:49.690Z,18.01
2022-08-09T09:44:59.076Z,18.11
2022-08-09T09:48:04.096Z,18.25
2022-08-09T09:51:07.118Z,18.39
2022-08-09T09:54:21.021Z,18.55
2022-08-09T09:58:00.895Z,18.75
2022-08-09T10:00:52.964Z,18.97
2022-08-09T10:04:00.152Z,19.14
2022-08-09T10:07:10.012Z,19.25
2022-08-09T10:10:12.057Z,19.36
2022-08-09T10:13:13.624Z,19.56
2022-08-09T10:16:58.346Z,19.83
2022-08-09T10:20:00.929Z,20.02
2022-08-09T10:23:19.920Z,20.19
2022-08-09T10:26:24.657Z,20.42
2022-08-09T10:30:22.784Z,20.66
2022-08-09T10:32:49.400Z,20.86
2022-08-09T10:35:53.064Z,20.95
2022-08-09T10:38:59.803Z,21.10
2022-08-09T10:42:02.009Z,21.31
2022-08-09T10:45:11.813Z,21.52
2022-08-09T10:48:30.829Z,21.72
2022-08-09T10:51:53.049Z,21.94
2022-08-09T10:54:54.938Z,22.14
2022-08-09T10:57:59.786Z,22.22
2022-08-09T11:03:05.646Z,22.34
2022-08-09T11:04:31.506Z,22.54
2022-08-09T11:07:57.728Z,22.71
2022-08-09T11:10:57.816Z,22.90
2022-08-09T11:14:32.566Z,23.02
2022-08-09T11:17:41.824Z,22.91
2022-08-09T11:20:49.716Z,22.86
2022-08-09T11:24:04.083Z,22.93
2022-08-09T11:28:08.070Z,23.11
2022-08-09T11:30:54.148Z,23.29
2022-08-09T11:33:58.264Z,23.48
2022-08-09T11:37:00.898Z,23.62
2022-08-09T11:40:06.391Z,23.73
2022-08-09T11:43:08.483Z,23.90
2022-08-09T11:46:11.488Z,24.05
2022-08-09T11:49:17.070Z,24.19
2022-08-09T11:53:03.665Z,24.10
2022-08-09T11:56:02.416Z,23.97
2022-08-09T11:59:07.543Z,23.83
2022-08-09T12:02:34.294Z,23.84
2022-08-09T12:05:39.755Z,23.94
2022-08-09T12:08:53.764Z,23.96
2022-08-09T12:12:04.077Z,23.93
2022-08-09T12:15:48.835Z,24.00
2022-08-09T12:18:53.922Z,24.17
2022-08-09T12:22:01.115Z,24.38
2022-08-09T12:25:16.206Z,24.51
2022-08-09T12:29:10.128Z,24.52
2022-08-09T12:32:02.607Z,24.45
2022-08-09T12:35:12.512Z,24.52
2022-08-09T12:38:38.112Z,24.69
2022-08-09T12:41:40.671Z,24.81
2022-08-09T12:44:46.457Z,24.82
2022-08-09T12:47:53.918Z,24.79
2022-08-09T12:50:56.660Z,24.81
2022-08-09T12:54:01.205Z,24.94
2022-08-09T12:57:03.183Z,25.00
2022-08-09T13:00:19.143Z,24.88
2022-08-09T13:03:58.450Z,24.86
2022-08-09T13:06:56.612Z,24.98
2022-08-09T13:10:02.931Z,25.10
2022-08-09T13:13:09.626Z,25.08
2022-08-09T13:16:15.893Z,25.03
2022-08-09T13:20:09.599Z,24.99
2022-08-09T13:23:04.871Z,25.07
2022-08-09T13:26:43.238Z,25.27
2022-08-09T13:30:04.151Z,25.32
2022-08-09T13:33:23.852Z,25.39
2022-08-09T13:36:42.064Z,25.45
2022-08-09T13:41:55.140Z,25.54
2022-08-09T13:43:09.554Z,25.56
2022-08-09T13:47:16.671Z,25.53
2022-08-09T13:49:39.626Z,25.54
2022-08-09T13:52:57.522Z,25.49
2022-08-09T13:55:59.378Z,25.50
2022-08-09T13:59:00.986Z,25.51
2022-08-09T14:02:04.137Z,25.48
2022-08-09T14:05:06.246Z,25.50
2022-08-09T14:08:10.392Z,25.48
2022-08-09T14:11:16.378Z,25.42
2022-08-09T14:14:24.822Z,25.37
2022-08-09T14:17:32.723Z,25.35
2022-08-09T14:20:51.055Z,25.36
2022-08-09T14:23:57.026Z,25.42
2022-08-09T14:27:00.441Z,25.49
2022-08-09T14:30:35.834Z,25.56
2022-08-09T14:33:24.702Z,25.57
2022-08-09T14:36:28.002Z,25.58
2022-08-09T14:39:47.001Z,25.56
2022-08-09T14:42:50.178Z,25.50
2022-08-09T14:46:57.367Z,25.44
2022-08-09T14:49:16.139Z,25.37
2022-08-09T14:52:17.981Z,25.38
2022-08-09T14:55:20.354Z,25.33
2022-08-09T14:58:22.823Z,25.33
2022-08-09T15:01:24.731Z,25.30
2022-08-09T15:04:27.461Z,25.30
2022-08-09T15:07:29.045Z,25.23
2022-08-09T15:10:37.351Z,25.19
2022-08-09T15:13:55.809Z,25.18
2022-08-09T15:16:58.253Z,25.07
2022-08-09T15:20:02.642Z,25.07
2022-08-09T15:24:01.946Z,25.04
2022-08-09T15:26:31.057Z,24.99
2022-08-09T15:30:56.406Z,24.93
2022-08-09T15:32:55.462Z,24.90
2022-08-09T15:36:02.104Z,24.86
2022-08-09T15:39:04.268Z,24.78
2022-08-09T15:42:06.006Z,24.78
2022-08-09T15:45:10.059Z,24.77
2022-08-09T15:48:28.477Z,24.75
2022-08-09T15:51:44.358Z,24.73
2022-08-09T15:54:52.959Z,24.68
2022-08-09T15:57:54.820Z,24.67
2022-08-09T16:00:56.967Z,24.61
2022-08-09T16:03:58.779Z,24.57
2022-08-09T16:07:01.841Z,24.51
2022-08-09T16:10:06.346Z,24.49
2022-08-09T16:13:18.512Z,24.45
2022-08-09T16:16:26.276Z,24.31
2022-08-09T16:19:30.087Z,24.21
2022-08-09T16:22:42.458Z,24.22
2022-08-09T16:25:50.278Z,24.24
2022-08-09T16:28:52.244Z,24.25
2022-08-09T16:32:19.980Z,24.19
2022-08-09T16:35:57.270Z,24.00
2022-08-09T16:38:42.408Z,23.81
2022-08-09T16:42:03.816Z,23.72
2022-08-09T16:45:07.059Z,23.72
2022-08-09T16:48:40.748Z,23.73
2022-08-09T16:51:31.272Z,23.72
2022-08-09T16:54:36.453Z,23.66
2022-08-09T16:58:09.072Z,23.50
2022-08-09T17:01:05.220Z,23.31
2022-08-09T17:04:08.068Z,23.14
2022-08-09T17:08:43.875Z,22.94
2022-08-09T17:10:31.421Z,22.77
2022-08-09T17:13:34.399Z,22.68
2022-08-09T17:16:38.347Z,22.64
2022-08-09T17:19:46.646Z,22.57
2022-08-09T17:23:03.286Z,22.47
2022-08-09T17:26:06.496Z,22.40
2022-08-09T17:29:11.794Z,22.34
2022-08-09T17:32:26.651Z,22.26
2022-08-09T17:35:41.352Z,22.25
2022-08-09T17:38:57.506Z,22.28
2022-08-09T17:42:01.513Z,22.22
2022-08-09T17:45:06.349Z,22.19
2022-08-09T17:48:08.239Z,22.10
2022-08-09T17:51:18.691Z,22.01
2022-08-09T17:54:25.202Z,21.98
2022-08-09T17:58:02.295Z,21.93
2022-08-09T18:00:51.751Z,21.89
2022-08-09T18:03:56.786Z,21.82
2022-08-09T18:07:04.737Z,21.74
2022-08-09T18:10:10.364Z,21.65
2022-08-09T18:13:42.910Z,21.65
2022-08-09T18:16:34.302Z,21.65
2022-08-09T18:20:55.323Z,21.61
2022-08-09T18:23:04.841Z,21.54
2022-08-09T18:26:07.912Z,21.48
2022-08-09T18:30:38.194Z,21.41
2022-08-09T18:32:32.370Z,21.37
2022-08-09T18:35:58.578Z,21.33
2022-08-09T18:39:01.928Z,21.26
2022-08-09T18:42:08.716Z,21.20
2022-08-09T18:45:21.681Z,21.13
2022-08-09T18:48:33.296Z,20.99
2022-08-09T18:51:38.800Z,20.92
2022-08-09T18:54:56.490Z,20.83
2022-08-09T18:57:59.220Z,20.76
2022-08-09T19:01:00.933Z,20.69
2022-08-09T19:04:08.349Z,20.62
2022-08-09T19:07:10.211Z,20.56
2022-08-09T19:10:17.098Z,20.49
2022-08-09T19:13:23.629Z,20.43
2022-08-09T19:16:42.462Z,20.35
2022-08-09T19:19:51.913Z,20.29
2022-08-09T19:23:02.641Z,20.22
2022-08-09T19:26:08.297Z,20.16
2022-08-09T19:29:18.029Z,20.09
2022-08-09T19:32:26.739Z,20.05
2022-08-09T19:35:58.024Z,20.01
2022-08-09T19:38:55.204Z,19.96
2022-08-09T19:41:57.747Z,19.92
2022-08-09T19:44:59.464Z,19.89
2022-08-09T19:48:01.168Z,19.82
2022-08-09T19:51:05.327Z,19.79
2022-08-09T19:54:08.300Z,19.76
2022-08-09T19:57:11.482Z,19.76
2022-08-09T20:00:13.961Z,19.77
2022-08-09T20:04:23.943Z,19.76
2022-08-09T20:06:37.635Z,19.68
2022-08-09T20:09:44.416Z,19.62
2022-08-09T20:12:47.532Z,19.58
2022-08-09T20:16:34.769Z,19.56
2022-08-09T20:19:42.900Z,19.50
2022-08-09T20:22:35.822Z,19.40
2022-08-09T20:25:52.462Z,19.33
2022-08-09T20:28:54.934Z,19.27
2022-08-09T20:32:30.153Z,19.23
2022-08-09T20:35:18.667Z,19.18
2022-08-09T20:38:33.970Z,19.16
2022-08-09T20:41:42.196Z,19.08
2022-08-09T20:44:50.723Z,19.03
2022-08-09T20:48:02.117Z,18.93
2022-08-09T20:51:04.920Z,18.89
2022-08-09T20:54:07.580Z,18.87
2022-08-09T20:57:14.502Z,18.82
2022-08-09T21:00:31.094Z,18.73
2022-08-09T21:03:39.496Z,18.66
2022-08-09T21:06:55.043Z,18.57
2022-08-09T21:09:58.538Z,18.51
2022-08-09T21:13:00.418Z,18.47
2022-08-09T21:16:02.165Z,18.41
2022-08-09T21:20:17.890Z,18.36
2022-08-09T21:22:38.493Z,18.32
2022-08-09T21:25:59.166Z,18.27
2022-08-09T21:29:01.604Z,18.26
2022-08-09T21:32:15.403Z,18.22
2022-08-09T21:35:21.755Z,18.16
2022-08-09T21:38:31.292Z,18.11
2022-08-09T21:42:05.929Z,18.01
2022-08-09T21:44:56.292Z,17.91
2022-08-09T21:47:58.844Z,17.87
2022-08-09T21:51:00.525Z,17.79
2022-08-09T21:54:02.102Z,17.66
2022-08-09T21:57:03.944Z,17.55
2022-08-09T22:00:15.434Z,17.48
2022-08-09T22:03:25.196Z,17.43
2022-08-09T22:06:27.409Z,17.42
2022-08-09T22:09:29.908Z,17.37
2022-08-09T22:12:33.696Z,17.30
2022-08-09T22:15:35.412Z,17.27
2022-08-09T22:18:44.204Z,17.18
2022-08-09T22:21:56.307Z,17.07
2022-08-09T22:26:06.491Z,16.99
2022-08-09T22:28:21.081Z,16.88
2022-08-09T22:31:34.233Z,16.79
2022-08-09T22:34:40.356Z,16.71
2022-08-09T22:37:42.855Z,16.64
2022-08-09T22:40:49.081Z,16.56
2022-08-09T22:44:02.308Z,16.51
2022-08-09T22:48:14.136Z,16.44
2022-08-09T22:50:28.001Z,16.29
2022-08-09T22:53:44.159Z,16.16
2022-08-09T22:56:56.809Z,16.04
2022-08-09T22:59:59.459Z,15.95
2022-08-09T23:03:01.186Z,15.86
2022-08-09T23:06:03.608Z,15.77
2022-08-09T23:09:06.273Z,15.72
2022-08-09T23:12:08.408Z,15.65
2022-08-09T23:15:10.854Z,15.60
2022-08-09T23:18:12.445Z,15.54
2022-08-09T23:21:15.583Z,15.48
2022-08-09T23:24:28.364Z,15.39
2022-08-09T23:27:29.920Z,15.32
2022-08-09T23:30:31.552Z,15.28
2022-08-09T23:33:33.185Z,15.25
2022-08-09T23:36:35.540Z,15.27
2022-08-09T23:39:37.239Z,15.28
2022-08-09T23:42:38.965Z,15.29
2022-08-09T23:45:42.307Z,15.30
2022-08-09T23:48:43.853Z,15.26
2022-08-09T23:51:45.473Z,15.20
2022-08-09T23:54:47.130Z,15.11
2022-08-09T23:58:06.704Z,15.08
